createdAt,value
2022-11-16T00:00:19.821Z,124.13
2022-11-16T00:02:52.848Z,124.03
2022-11-16T00:05:28.290Z,115.38
2022-11-16T00:07:59.187Z,109.88
2022-11-16T00:10:26.755Z,116.63
2022-11-16T00:12:54.556Z,112.47
2022-11-16T00:15:24.153Z,111.90
2022-11-16T00:17:53.967Z,112.78
2022-11-16T00:20:28.654Z,110.13
2022-11-16T00:22:59.424Z,97.33
2022-11-16T00:25:26.962Z,96.28
2022-11-16T00:27:58.043Z,97.82
2022-11-16T00:30:30.703Z,95.30
2022-11-16T00:33:05.032Z,98.60
2022-11-16T00:35:45.190Z,107.05
2022-11-16T00:38:14.244Z,96.32
2022-11-16T00:40:46.403Z,97.07
2022-11-16T00:43:15.779Z,96.80
2022-11-16T00:45:46.858Z,96.93
2022-11-16T00:48:15.075Z,100.15
2022-11-16T00:50:46.122Z,107.15
2022-11-16T00:53:21.629Z,99.53
2022-11-16T00:55:55.506Z,104.85
2022-11-16T00:58:26.778Z,105.25
2022-11-16T01:01:13.742Z,77.78
2022-11-16T01:03:44.805Z,107.43
2022-11-16T01:06:16.507Z,104.97
2022-11-16T01:08:47.654Z,113.90
2022-11-16T01:11:36.578Z,149.10
2022-11-16T01:14:06.853Z,129.90
2022-11-16T01:16:38.178Z,99.55
2022-11-16T01:19:08.697Z,97.00
2022-11-16T01:21:38.205Z,94.05
2022-11-16T01:24:12.072Z,95.25
2022-11-16T01:26:39.844Z,96.43
2022-11-16T01:29:11.437Z,88.07
2022-11-16T01:31:43.863Z,89.80
2022-11-16T01:34:14.419Z,91.07
2022-11-16T01:36:44.302Z,80.45
2022-11-16T01:39:16.373Z,82.05
2022-11-16T01:42:06.413Z,86.47
2022-11-16T01:44:33.828Z,84.60
2022-11-16T01:49:52.182Z,77.78
2022-11-16T01:55:20.955Z,81.88
2022-11-16T01:58:29.555Z,79.28
2022-11-16T02:01:06.497Z,80.65
2022-11-16T02:03:45.275Z,77.95
2022-11-16T02:06:30.125Z,80.28
2022-11-16T02:09:46.484Z,70.55
2022-11-16T02:12:52.457Z,68.10
2022-11-16T02:16:25.829Z,66.05
2022-11-16T02:19:13.605Z,66.43
2022-11-16T02:21:59.467Z,63.35
2022-11-16T02:24:58.064Z,65.32
2022-11-16T02:27:52.482Z,64.03
2022-11-16T02:30:25.983Z,44.97
2022-11-16T02:33:07.092Z,68.80
2022-11-16T02:36:08.650Z,79.85
2022-11-16T02:38:42.215Z,70.93
2022-11-16T02:41:31.456Z,57.30
2022-11-16T02:44:25.046Z,68.78
2022-11-16T02:47:01.296Z,72.85
2022-11-16T02:49:35.893Z,75.72
2022-11-16T02:52:08.363Z,78.57
2022-11-16T02:54:35.919Z,79.78
2022-11-16T02:57:03.881Z,79.85
2022-11-16T03:00:04.787Z,80.72
2022-11-16T03:03:11.724Z,73.28
2022-11-16T03:05:53.635Z,80.53
2022-11-16T03:08:42.399Z,69.70
2022-11-16T03:11:35.669Z,66.82
2022-11-16T03:14:21.642Z,70.38
2022-11-16T03:16:58.711Z,71.30
2022-11-16T03:20:11.345Z,67.15
2022-11-16T03:22:52.419Z,66.03
2022-11-16T03:25:25.885Z,73.18
2022-11-16T03:28:12.179Z,69.88
2022-11-16T03:31:06.299Z,63.30
2022-11-16T03:33:43.017Z,66.38
2022-11-16T03:36:49.298Z,65.53
2022-11-16T03:39:25.889Z,68.68
2022-11-16T03:42:07.663Z,66.75
2022-11-16T03:44:35.887Z,74.30
2022-11-16T03:47:07.800Z,69.40
2022-11-16T03:49:36.210Z,65.55
2022-11-16T03:52:05.487Z,71.15
2022-11-16T03:54:39.422Z,69.65
2022-11-16T03:57:07.042Z,65.65
2022-11-16T03:59:37.750Z,66.75
2022-11-16T04:02:08.013Z,67.60
2022-11-16T04:04:56.714Z,64.22
2022-11-16T04:07:46.462Z,66.07
2022-11-16T04:10:35.430Z,61.72
2022-11-16T04:13:27.629Z,59.03
2022-11-16T04:16:17.784Z,65.03
2022-11-16T04:19:06.667Z,60.97
2022-11-16T04:22:05.315Z,61.72
2022-11-16T04:24:43.241Z,67.10
2022-11-16T04:27:35.506Z,57.67
2022-11-16T04:30:07.475Z,67.03
2022-11-16T04:32:57.467Z,67.68
2022-11-16T04:35:45.426Z,83.55
2022-11-16T04:38:17.718Z,75.82
2022-11-16T04:40:50.542Z,79.05
2022-11-16T04:43:43.660Z,64.22
2022-11-16T04:46:32.863Z,59.00
2022-11-16T04:49:06.569Z,60.95
2022-11-16T04:51:35.700Z,64.57
2022-11-16T04:54:04.015Z,58.80
2022-11-16T04:56:35.660Z,58.65
2022-11-16T04:59:11.068Z,58.80
2022-11-16T05:02:02.505Z,42.97
2022-11-16T05:04:59.402Z,60.08
2022-11-16T05:07:31.080Z,56.60
2022-11-16T05:10:15.917Z,57.83
2022-11-16T05:12:46.882Z,57.90
2022-11-16T05:15:19.499Z,61.00
2022-11-16T05:17:53.887Z,57.50
2022-11-16T05:20:46.743Z,55.08
2022-11-16T05:23:35.689Z,57.42
2022-11-16T05:26:10.033Z,58.03
2022-11-16T05:28:41.641Z,58.60
2022-11-16T05:31:13.194Z,56.95
2022-11-16T05:33:42.214Z,60.63
2022-11-16T05:36:15.768Z,65.85
2022-11-16T05:38:43.274Z,68.70
2022-11-16T05:41:17.283Z,64.72
2022-11-16T05:43:48.123Z,68.03
2022-11-16T05:46:23.072Z,67.60
2022-11-16T05:48:51.586Z,64.60
2022-11-16T05:51:24.400Z,64.07
2022-11-16T05:53:56.537Z,63.13
2022-11-16T05:56:24.868Z,69.88
2022-11-16T05:58:58.418Z,64.97
2022-11-16T06:01:29.959Z,66.65
2022-11-16T06:04:03.381Z,72.07
2022-11-16T06:06:37.127Z,72.15
2022-11-16T06:09:13.459Z,69.18
2022-11-16T06:11:43.666Z,66.18
2022-11-16T06:14:14.493Z,65.90
2022-11-16T06:16:45.835Z,53.15
2022-11-16T06:19:15.666Z,55.35
2022-11-16T06:21:43.193Z,55.05
2022-11-16T06:26:49.403Z,55.88
2022-11-16T06:29:17.169Z,60.35
2022-11-16T06:31:47.440Z,57.08
2022-11-16T06:34:16.250Z,60.35
2022-11-16T06:36:44.516Z,56.17
2022-11-16T06:39:18.517Z,64.43
2022-11-16T06:41:49.443Z,61.70
2022-11-16T06:44:18.425Z,69.80
2022-11-16T06:46:58.793Z,66.28
2022-11-16T06:49:28.830Z,59.13
2022-11-16T06:52:01.694Z,61.83
2022-11-16T06:54:31.782Z,59.40
2022-11-16T06:57:04.758Z,64.07
2022-11-16T06:59:38.170Z,61.00
2022-11-16T07:02:09.315Z,66.25
2022-11-16T07:04:46.584Z,65.70
2022-11-16T07:07:18.503Z,63.95
2022-11-16T07:09:46.400Z,62.00
2022-11-16T07:12:17.316Z,64.00
2022-11-16T07:14:46.168Z,61.55
2022-11-16T07:17:16.303Z,63.72
2022-11-16T07:19:47.468Z,57.75
2022-11-16T07:22:20.713Z,62.00
2022-11-16T07:24:53.997Z,61.28
2022-11-16T07:27:23.508Z,59.15
2022-11-16T07:29:56.770Z,59.22
2022-11-16T07:32:54.607Z,57.78
2022-11-16T07:35:45.430Z,61.00
2022-11-16T07:38:17.875Z,59.63
2022-11-16T07:40:50.605Z,59.95
2022-11-16T07:43:25.692Z,68.57
2022-11-16T07:49:24.972Z,59.10
2022-11-16T07:51:58.490Z,62.22
2022-11-16T07:54:47.200Z,59.83
2022-11-16T07:57:20.842Z,67.32
2022-11-16T08:00:00.897Z,83.88
2022-11-16T08:02:53.243Z,70.30
2022-11-16T08:05:28.758Z,65.28
2022-11-16T08:07:59.940Z,72.93
2022-11-16T08:10:31.436Z,64.70
2022-11-16T08:13:02.993Z,65.95
2022-11-16T08:15:32.812Z,75.57
2022-11-16T08:18:05.608Z,73.28
2022-11-16T08:20:38.751Z,68.75
2022-11-16T08:23:09.604Z,68.18
2022-11-16T08:25:42.456Z,71.10
2022-11-16T08:28:09.647Z,73.07
2022-11-16T08:30:48.428Z,79.97
2022-11-16T08:36:30.149Z,83.40
2022-11-16T08:38:58.533Z,77.03
2022-11-16T08:41:34.132Z,78.32
2022-11-16T08:44:07.906Z,78.97
2022-11-16T08:46:41.038Z,76.20
2022-11-16T08:49:32.539Z,84.60
2022-11-16T08:52:02.859Z,85.75
2022-11-16T08:54:33.849Z,95.95
2022-11-16T08:57:05.098Z,99.30
2022-11-16T09:02:16.647Z,56.27
2022-11-16T09:04:47.796Z,73.75
2022-11-16T09:07:15.814Z,73.45
2022-11-16T09:09:44.185Z,73.50
2022-11-16T09:12:13.552Z,72.20
2022-11-16T09:14:44.126Z,73.38
2022-11-16T09:17:16.509Z,76.60
2022-11-16T09:19:49.953Z,74.10
2022-11-16T09:22:20.191Z,76.38
2022-11-16T09:24:49.877Z,73.80
2022-11-16T09:27:22.865Z,70.07
2022-11-16T09:29:52.681Z,62.53
2022-11-16T09:32:22.819Z,58.13
2022-11-16T09:34:50.760Z,64.72
2022-11-16T09:37:21.527Z,57.45
2022-11-16T09:39:52.761Z,62.53
2022-11-16T09:42:44.957Z,67.35
2022-11-16T09:45:46.248Z,63.50
2022-11-16T09:48:16.904Z,67.25
2022-11-16T09:51:11.055Z,70.65
2022-11-16T09:53:48.537Z,66.40
2022-11-16T09:56:26.150Z,72.10
2022-11-16T09:59:11.090Z,76.28
2022-11-16T10:01:58.528Z,67.07
2022-11-16T10:04:58.506Z,65.47
2022-11-16T10:07:54.896Z,68.38
2022-11-16T10:11:09.549Z,69.03
2022-11-16T10:14:14.846Z,60.72
2022-11-16T10:17:02.275Z,60.90
2022-11-16T10:19:54.637Z,68.22
2022-11-16T10:22:56.293Z,63.90
2022-11-16T10:25:48.718Z,75.05
2022-11-16T10:29:09.293Z,76.97
2022-11-16T10:32:11.076Z,76.47
2022-11-16T10:35:21.461Z,75.55
2022-11-16T10:37:51.785Z,86.65
2022-11-16T10:40:40.987Z,85.68
2022-11-16T10:43:30.549Z,82.55
2022-11-16T10:46:37.149Z,76.40
2022-11-16T10:49:29.367Z,72.82
2022-11-16T10:52:00.254Z,66.38
2022-11-16T10:54:28.486Z,63.25
2022-11-16T10:57:18.210Z,52.63
2022-11-16T10:59:56.519Z,50.83
2022-11-16T11:02:41.560Z,47.25
2022-11-16T11:05:25.942Z,46.85
2022-11-16T11:08:14.041Z,41.83
2022-11-16T11:10:46.624Z,35.15
2022-11-16T11:13:29.757Z,42.53
2022-11-16T11:16:27.137Z,33.22
2022-11-16T11:18:56.723Z,34.55
2022-11-16T11:21:31.136Z,42.47
2022-11-16T11:27:08.261Z,26.20
2022-11-16T11:29:41.342Z,23.67
2022-11-16T11:32:24.511Z,19.77
2022-11-16T11:34:58.972Z,24.48
2022-11-16T11:37:41.650Z,16.23
2022-11-16T11:40:29.911Z,20.98
2022-11-16T11:43:10.518Z,13.88
2022-11-16T11:46:08.922Z,36.78
2022-11-16T11:48:55.509Z,28.45
2022-11-16T11:51:35.130Z,14.57
2022-11-16T11:54:08.113Z,14.00
2022-11-16T11:56:36.869Z,13.05
2022-11-16T11:59:08.086Z,11.60
2022-11-16T12:01:51.234Z,9.57
2022-11-16T12:04:43.140Z,10.43
2022-11-16T12:07:24.919Z,12.57
2022-11-16T12:10:03.240Z,12.13
2022-11-16T12:13:11.339Z,10.52
2022-11-16T12:16:00.623Z,10.18
2022-11-16T12:18:49.137Z,8.82
2022-11-16T12:21:54.023Z,11.15
2022-11-16T12:25:05.337Z,9.95
2022-11-16T12:28:15.640Z,12.73
2022-11-16T12:31:10.583Z,15.10
2022-11-16T13:11:39.797Z,9.35
2022-11-16T13:14:33.495Z,13.73
2022-11-16T13:17:06.780Z,13.82
2022-11-16T13:19:48.259Z,6.57
2022-11-16T13:22:28.421Z,8.70
2022-11-16T13:25:38.757Z,8.73
2022-11-16T13:28:17.871Z,13.98
2022-11-16T13:31:26.032Z,16.15
2022-11-16T13:34:19.391Z,8.82
2022-11-16T13:36:50.470Z,6.35
2022-11-16T13:40:07.251Z,12.82
2022-11-16T13:42:46.352Z,14.85
2022-11-16T13:45:29.214Z,24.13
2022-11-16T13:48:03.338Z,22.98
2022-11-16T13:50:38.351Z,12.60
2022-11-16T13:56:13.601Z,39.30
2022-11-16T13:58:57.666Z,153.95
2022-11-16T14:01:29.722Z,89.05
2022-11-16T14:04:34.539Z,113.55
2022-11-16T14:07:33.565Z,116.03
2022-11-16T14:10:03.902Z,86.95
2022-11-16T14:12:54.441Z,76.38
2022-11-16T14:15:28.688Z,47.47
2022-11-16T14:18:23.490Z,32.95
2022-11-16T14:21:22.177Z,23.45
2022-11-16T14:24:23.527Z,28.40
2022-11-16T14:27:02.965Z,70.43
2022-11-16T14:29:56.297Z,54.15
2022-11-16T14:32:54.784Z,69.43
2022-11-16T14:35:39.667Z,48.63
2022-11-16T14:40:48.571Z,24.98
2022-11-16T14:43:23.655Z,20.80
2022-11-16T14:46:11.761Z,30.48
2022-11-16T14:48:48.113Z,19.27
2022-11-16T14:51:30.148Z,25.05
2022-11-16T14:54:27.586Z,17.70
2022-11-16T14:57:11.699Z,16.73
2022-11-16T14:59:43.102Z,16.38
2022-11-16T15:02:26.437Z,15.43
2022-11-16T15:04:57.425Z,18.50
2022-11-16T15:07:28.286Z,12.95
2022-11-16T15:10:02.389Z,12.07
2022-11-16T15:12:42.637Z,13.73
2022-11-16T15:15:10.611Z,12.30
2022-11-16T15:17:45.014Z,11.38
2022-11-16T15:20:24.841Z,15.18
2022-11-16T15:22:58.414Z,10.07
2022-11-16T15:25:31.464Z,10.25
2022-11-16T15:28:22.990Z,9.85
2022-11-16T15:33:46.602Z,12.35
2022-11-16T15:36:37.921Z,10.05
2022-11-16T15:39:16.307Z,18.48
2022-11-16T15:41:49.033Z,20.30
2022-11-16T15:44:23.745Z,17.95
2022-11-16T15:46:58.639Z,14.55
2022-11-16T15:49:52.975Z,14.65
2022-11-16T15:53:01.752Z,17.05
2022-11-16T15:55:57.429Z,13.73
2022-11-16T15:58:34.014Z,19.58
2022-11-16T16:01:07.128Z,16.17
2022-11-16T16:03:36.661Z,12.60
2022-11-16T16:06:08.879Z,15.15
2022-11-16T16:08:42.397Z,16.95
2022-11-16T16:13:45.951Z,21.08
2022-11-16T16:16:52.197Z,21.13
2022-11-16T16:19:38.481Z,28.00
2022-11-16T16:22:14.374Z,24.85
2022-11-16T16:24:49.131Z,16.85
2022-11-16T16:27:24.655Z,18.17
2022-11-16T16:30:04.929Z,17.42
2022-11-16T16:32:35.612Z,18.98
2022-11-16T16:35:09.833Z,22.00
2022-11-16T16:37:41.487Z,23.23
2022-11-16T16:40:12.318Z,20.85
2022-11-16T16:42:46.377Z,20.65
2022-11-16T16:45:28.785Z,21.30
2022-11-16T16:47:58.131Z,22.05
2022-11-16T16:50:26.792Z,19.58
2022-11-16T16:52:57.572Z,19.85
2022-11-16T16:55:27.876Z,16.58
2022-11-16T16:58:02.442Z,20.67
2022-11-16T17:00:32.174Z,18.33
2022-11-16T17:03:05.209Z,18.02
2022-11-16T17:05:37.684Z,18.05
2022-11-16T17:08:05.958Z,16.80
2022-11-16T17:10:39.818Z,14.60
2022-11-16T17:13:13.925Z,13.93
2022-11-16T17:15:43.830Z,16.20
2022-11-16T17:18:12.093Z,12.57
2022-11-16T17:20:45.616Z,16.25
2022-11-16T17:23:21.498Z,14.15
2022-11-16T17:25:57.671Z,16.63
2022-11-16T17:28:26.381Z,18.65
2022-11-16T17:31:00.751Z,16.23
2022-11-16T17:33:34.656Z,14.35
2022-11-16T17:36:21.925Z,15.55
2022-11-16T17:38:53.370Z,14.20
2022-11-16T17:41:24.341Z,14.93
2022-11-16T17:43:53.728Z,16.00
2022-11-16T17:46:29.214Z,14.02
2022-11-16T17:51:33.672Z,15.10
2022-11-16T17:54:04.540Z,13.70
2022-11-16T17:56:34.756Z,13.85
2022-11-16T17:59:02.098Z,15.82
2022-11-16T18:01:32.502Z,20.80
2022-11-16T18:04:05.117Z,12.88
2022-11-16T18:06:35.497Z,16.08
2022-11-16T18:09:06.263Z,14.43
2022-11-16T18:11:37.035Z,11.50
2022-11-16T18:14:08.507Z,15.55
2022-11-16T18:16:38.304Z,17.25
2022-11-16T18:19:07.172Z,14.13
2022-11-16T18:21:43.759Z,13.02
2022-11-16T18:24:15.565Z,19.95
2022-11-16T18:26:43.061Z,11.70
2022-11-16T18:29:18.685Z,10.85
2022-11-16T18:31:46.904Z,15.63
2022-11-16T18:34:20.190Z,11.38
2022-11-16T18:36:52.619Z,13.27
2022-11-16T18:39:22.272Z,17.13
2022-11-16T18:41:58.611Z,18.98
2022-11-16T18:44:25.951Z,9.73
2022-11-16T18:46:56.233Z,15.60
2022-11-16T18:49:29.148Z,12.68
2022-11-16T18:52:00.813Z,12.57
2022-11-16T18:54:31.107Z,11.45
2022-11-16T18:56:59.181Z,13.07
2022-11-16T18:59:30.300Z,12.45
2022-11-16T19:01:58.939Z,11.30
2022-11-16T19:04:29.202Z,11.32
2022-11-16T19:06:58.038Z,12.43
2022-11-16T19:09:26.585Z,16.15
2022-11-16T19:12:00.691Z,19.15
2022-11-16T19:14:32.276Z,16.63
2022-11-16T19:17:01.949Z,15.60
2022-11-16T19:19:34.998Z,18.50
2022-11-16T19:22:05.352Z,13.88
2022-11-16T19:24:36.439Z,13.93
2022-11-16T19:27:05.247Z,15.70
2022-11-16T19:29:34.262Z,14.52
2022-11-16T19:32:06.477Z,12.77
2022-11-16T19:34:38.598Z,18.55
2022-11-16T19:37:08.392Z,17.40
2022-11-16T19:39:41.642Z,17.00
2022-11-16T19:42:12.690Z,17.60
2022-11-16T19:44:41.492Z,21.73
2022-11-16T19:47:10.886Z,14.68
2022-11-16T19:49:41.381Z,16.60
2022-11-16T19:52:12.968Z,15.23
2022-11-16T19:54:44.506Z,14.02
2022-11-16T19:57:19.724Z,14.00
2022-11-16T19:59:48.733Z,12.00
2022-11-16T20:02:18.454Z,10.18
2022-11-16T20:04:48.577Z,11.07
2022-11-16T20:07:21.296Z,6.63
2022-11-16T20:09:53.715Z,8.48
2022-11-16T20:12:24.770Z,9.15
2022-11-16T20:14:56.153Z,9.30
2022-11-16T20:17:26.558Z,19.58
2022-11-16T20:19:56.991Z,14.32
2022-11-16T20:22:27.670Z,11.57
2022-11-16T20:24:58.501Z,16.27
2022-11-16T20:27:27.612Z,19.45
2022-11-16T20:30:00.977Z,22.52
2022-11-16T20:33:00.120Z,12.85
2022-11-16T20:35:31.791Z,17.85
2022-11-16T20:38:01.600Z,13.27
2022-11-16T20:40:31.946Z,18.77
2022-11-16T20:43:02.770Z,12.35
2022-11-16T20:45:36.696Z,15.00
2022-11-16T20:48:06.845Z,9.20
2022-11-16T20:50:38.144Z,14.90
2022-11-16T20:53:06.054Z,19.88
2022-11-16T20:55:35.616Z,12.05
2022-11-16T20:58:08.686Z,14.93
2022-11-16T21:00:36.275Z,21.27
2022-11-16T21:03:10.425Z,19.42
2022-11-16T21:05:45.693Z,12.02
2022-11-16T21:08:16.768Z,11.98
2022-11-16T21:10:45.527Z,11.32
2022-11-16T21:13:41.029Z,12.02
2022-11-16T21:16:14.039Z,9.15
2022-11-16T21:18:43.249Z,15.13
2022-11-16T21:21:13.348Z,12.93
2022-11-16T21:23:56.611Z,13.43
2022-11-16T21:26:33.377Z,21.48
2022-11-16T21:29:02.629Z,13.80
2022-11-16T21:31:32.876Z,15.80
2022-11-16T21:34:07.722Z,17.52
2022-11-16T21:39:04.157Z,16.33
2022-11-16T21:41:37.238Z,44.90
2022-11-16T21:44:08.761Z,23.88
2022-11-16T21:46:38.628Z,18.95
2022-11-16T21:49:10.645Z,15.18
2022-11-16T21:51:43.779Z,16.63
2022-11-16T21:54:13.882Z,20.85
2022-11-16T21:56:43.502Z,29.60
2022-11-16T21:59:13.764Z,32.22
2022-11-16T22:02:02.862Z,17.65
2022-11-16T22:04:52.851Z,18.08
2022-11-16T22:07:34.070Z,20.90
2022-11-16T22:10:07.441Z,20.83
2022-11-16T22:12:37.596Z,33.28
2022-11-16T22:15:21.774Z,28.63
2022-11-16T22:17:55.797Z,28.52
2022-11-16T22:20:27.226Z,33.95
2022-11-16T22:22:58.354Z,29.02
2022-11-16T22:25:27.567Z,22.15
2022-11-16T22:28:19.667Z,18.77
2022-11-16T22:30:52.093Z,22.20
2022-11-16T22:35:50.267Z,41.20
2022-11-16T22:38:20.509Z,37.80
2022-11-16T22:40:56.842Z,25.70
2022-11-16T22:43:33.019Z,32.63
2022-11-16T22:46:09.665Z,35.75
2022-11-16T22:48:41.493Z,40.22
2022-11-16T22:51:31.387Z,30.23
2022-11-16T22:54:08.854Z,23.55
2022-11-16T22:56:39.754Z,26.08
2022-11-16T22:59:13.299Z,28.33
2022-11-16T23:01:44.449Z,24.88
2022-11-16T23:04:12.311Z,19.73
2022-11-16T23:06:43.976Z,19.92
2022-11-16T23:09:11.448Z,17.85
2022-11-16T23:11:59.725Z,16.75
2022-11-16T23:14:49.261Z,19.05
2022-11-16T23:17:20.179Z,20.40
2022-11-16T23:20:08.712Z,21.85
2022-11-16T23:23:06.312Z,25.92
2022-11-16T23:25:55.708Z,24.50
2022-11-16T23:28:25.660Z,23.88
2022-11-16T23:30:53.220Z,26.88
2022-11-16T23:33:48.331Z,25.95
2022-11-16T23:38:49.923Z,27.70
2022-11-16T23:41:40.043Z,27.15
2022-11-16T23:44:07.654Z,29.20
2022-11-16T23:46:36.044Z,35.25
2022-11-16T23:49:05.863Z,28.40
2022-11-16T23:51:36.759Z,30.27
2022-11-16T23:54:07.863Z,37.08
2022-11-16T23:56:37.789Z,30.70
2022-11-16T23:59:08.769Z,33.15
